sensor_id;sensor_type;location;lat;lon;timestamp;P1;durP1;ratioP1;P2;durP2;ratioP2
57463;SDS011;43309;44.418;26.122;2022-08-03T00:01:17;4.00;;;3.50;;
57463;SDS011;43309;44.418;26.122;2022-08-03T00:06:12;4.10;;;2.90;;
57463;SDS011;43309;44.418;26.122;2022-08-03T00:08:40;5.40;;;3.10;;
57463;SDS011;43309;44.418;26.122;2022-08-03T00:11:08;3.30;;;3.00;;
57463;SDS011;43309;44.418;26.122;2022-08-03T00:13:35;4.00;;;3.60;;
57463;SDS011;43309;44.418;26.122;2022-08-03T00:16:03;3.90;;;3.50;;
57463;SDS011;43309;44.418;26.122;2022-08-03T00:18:31;3.50;;;3.20;;
57463;SDS011;43309;44.418;26.122;2022-08-03T00:20:59;4.00;;;3.60;;
57463;SDS011;43309;44.418;26.122;2022-08-03T00:23:27;4.40;;;4.00;;
57463;SDS011;43309;44.418;26.122;2022-08-03T00:25:55;4.60;;;3.30;;
57463;SDS011;43309;44.418;26.122;2022-08-03T00:28:23;4.50;;;3.30;;
57463;SDS011;43309;44.418;26.122;2022-08-03T00:30:51;4.30;;;3.30;;
57463;SDS011;43309;44.418;26.122;2022-08-03T00:33:18;3.60;;;3.30;;
57463;SDS011;43309;44.418;26.122;2022-08-03T00:35:46;4.50;;;3.60;;
57463;SDS011;43309;44.418;26.122;2022-08-03T00:38:14;5.20;;;3.40;;
57463;SDS011;43309;44.418;26.122;2022-08-03T00:40:42;4.50;;;3.80;;
57463;SDS011;43309;44.418;26.122;2022-08-03T00:43:12;3.70;;;3.40;;
57463;SDS011;43309;44.418;26.122;2022-08-03T00:45:40;3.90;;;3.50;;
57463;SDS011;43309;44.418;26.122;2022-08-03T00:48:10;5.60;;;3.90;;
57463;SDS011;43309;44.418;26.122;2022-08-03T00:50:39;4.50;;;4.00;;
57463;SDS011;43309;44.418;26.122;2022-08-03T00:53:08;4.80;;;4.20;;
57463;SDS011;43309;44.418;26.122;2022-08-03T00:58:09;5.70;;;4.00;;
57463;SDS011;43309;44.418;26.122;2022-08-03T01:00:38;9.60;;;4.60;;
57463;SDS011;43309;44.418;26.122;2022-08-03T01:03:08;6.50;;;4.30;;
57463;SDS011;43309;44.418;26.122;2022-08-03T01:05:39;5.70;;;4.30;;
57463;SDS011;43309;44.418;26.122;2022-08-03T01:08:28;7.30;;;4.60;;
57463;SDS011;43309;44.418;26.122;2022-08-03T01:13:49;6.20;;;4.30;;
57463;SDS011;43309;44.418;26.122;2022-08-03T01:16:53;5.20;;;4.20;;
57463;SDS011;43309;44.418;26.122;2022-08-03T01:25:27;7.60;;;4.70;;
57463;SDS011;43309;44.418;26.122;2022-08-03T01:30:38;4.70;;;4.20;;
57463;SDS011;43309;44.418;26.122;2022-08-03T01:33:17;6.60;;;4.80;;
57463;SDS011;43309;44.418;26.122;2022-08-03T01:36:11;5.90;;;5.00;;
57463;SDS011;43309;44.418;26.122;2022-08-03T01:38:42;5.10;;;4.40;;
57463;SDS011;43309;44.418;26.122;2022-08-03T01:41:21;5.50;;;4.40;;
57463;SDS011;43309;44.418;26.122;2022-08-03T01:43:52;6.50;;;4.70;;
57463;SDS011;43309;44.418;26.122;2022-08-03T01:46:20;5.70;;;4.40;;
57463;SDS011;43309;44.418;26.122;2022-08-03T01:48:49;5.90;;;4.20;;
57463;SDS011;43309;44.418;26.122;2022-08-03T01:51:18;5.40;;;4.50;;
57463;SDS011;43309;44.418;26.122;2022-08-03T01:53:47;6.50;;;4.30;;
57463;SDS011;43309;44.418;26.122;2022-08-03T01:56:17;4.90;;;4.00;;
57463;SDS011;43309;44.418;26.122;2022-08-03T01:58:49;7.40;;;4.40;;
57463;SDS011;43309;44.418;26.122;2022-08-03T02:01:19;5.20;;;4.10;;
57463;SDS011;43309;44.418;26.122;2022-08-03T02:03:48;4.50;;;4.10;;
57463;SDS011;43309;44.418;26.122;2022-08-03T02:06:16;5.80;;;4.10;;
57463;SDS011;43309;44.418;26.122;2022-08-03T02:08:45;5.50;;;4.20;;
57463;SDS011;43309;44.418;26.122;2022-08-03T02:11:15;4.80;;;4.30;;
57463;SDS011;43309;44.418;26.122;2022-08-03T02:13:43;4.80;;;4.30;;
57463;SDS011;43309;44.418;26.122;2022-08-03T02:16:12;4.70;;;4.10;;
57463;SDS011;43309;44.418;26.122;2022-08-03T02:18:40;5.80;;;4.10;;
57463;SDS011;43309;44.418;26.122;2022-08-03T02:21:08;5.10;;;4.20;;
57463;SDS011;43309;44.418;26.122;2022-08-03T02:23:37;5.80;;;4.20;;
57463;SDS011;43309;44.418;26.122;2022-08-03T02:26:07;5.20;;;4.20;;
57463;SDS011;43309;44.418;26.122;2022-08-03T02:41:24;5.40;;;4.80;;
57463;SDS011;43309;44.418;26.122;2022-08-03T02:43:56;6.20;;;4.20;;
57463;SDS011;43309;44.418;26.122;2022-08-03T02:46:31;5.00;;;4.40;;
57463;SDS011;43309;44.418;26.122;2022-08-03T02:49:00;4.70;;;4.30;;
57463;SDS011;43309;44.418;26.122;2022-08-03T02:51:29;9.10;;;4.40;;
57463;SDS011;43309;44.418;26.122;2022-08-03T02:54:00;4.80;;;4.40;;
57463;SDS011;43309;44.418;26.122;2022-08-03T02:56:32;5.40;;;4.80;;
57463;SDS011;43309;44.418;26.122;2022-08-03T02:59:01;8.10;;;5.00;;
57463;SDS011;43309;44.418;26.122;2022-08-03T03:01:29;5.10;;;4.60;;
57463;SDS011;43309;44.418;26.122;2022-08-03T03:04:00;5.70;;;4.30;;
57463;SDS011;43309;44.418;26.122;2022-08-03T03:06:28;6.00;;;4.40;;
57463;SDS011;43309;44.418;26.122;2022-08-03T03:08:56;7.20;;;4.60;;
57463;SDS011;43309;44.418;26.122;2022-08-03T03:11:25;5.30;;;4.70;;
57463;SDS011;43309;44.418;26.122;2022-08-03T03:13:53;6.60;;;4.40;;
57463;SDS011;43309;44.418;26.122;2022-08-03T03:16:22;6.90;;;4.50;;
57463;SDS011;43309;44.418;26.122;2022-08-03T03:18:52;6.70;;;4.90;;
57463;SDS011;43309;44.418;26.122;2022-08-03T03:21:23;8.60;;;4.90;;
57463;SDS011;43309;44.418;26.122;2022-08-03T03:23:51;5.10;;;4.60;;
57463;SDS011;43309;44.418;26.122;2022-08-03T03:26:25;6.10;;;4.60;;
57463;SDS011;43309;44.418;26.122;2022-08-03T03:28:53;6.10;;;5.00;;
57463;SDS011;43309;44.418;26.122;2022-08-03T03:31:22;5.70;;;4.70;;
57463;SDS011;43309;44.418;26.122;2022-08-03T03:33:50;5.20;;;4.70;;
57463;SDS011;43309;44.418;26.122;2022-08-03T03:36:18;6.00;;;4.40;;
57463;SDS011;43309;44.418;26.122;2022-08-03T03:38:46;5.20;;;4.70;;
57463;SDS011;43309;44.418;26.122;2022-08-03T03:41:14;10.30;;;4.60;;
57463;SDS011;43309;44.418;26.122;2022-08-03T03:43:45;8.30;;;4.80;;
57463;SDS011;43309;44.418;26.122;2022-08-03T03:46:12;7.00;;;4.10;;
57463;SDS011;43309;44.418;26.122;2022-08-03T03:48:40;8.70;;;4.60;;
57463;SDS011;43309;44.418;26.122;2022-08-03T03:51:08;7.00;;;4.70;;
57463;SDS011;43309;44.418;26.122;2022-08-03T03:53:36;7.60;;;4.50;;
57463;SDS011;43309;44.418;26.122;2022-08-03T03:56:04;6.50;;;4.50;;
57463;SDS011;43309;44.418;26.122;2022-08-03T03:58:32;8.90;;;4.80;;
57463;SDS011;43309;44.418;26.122;2022-08-03T04:00:59;10.10;;;4.60;;
57463;SDS011;43309;44.418;26.122;2022-08-03T04:03:27;11.50;;;4.60;;
57463;SDS011;43309;44.418;26.122;2022-08-03T04:05:56;5.10;;;4.60;;
57463;SDS011;43309;44.418;26.122;2022-08-03T04:08:43;5.10;;;4.30;;
57463;SDS011;43309;44.418;26.122;2022-08-03T04:11:37;7.20;;;3.70;;
57463;SDS011;43309;44.418;26.122;2022-08-03T04:14:09;5.20;;;4.20;;
57463;SDS011;43309;44.418;26.122;2022-08-03T04:17:04;4.30;;;3.90;;
57463;SDS011;43309;44.418;26.122;2022-08-03T04:19:49;5.70;;;4.00;;
57463;SDS011;43309;44.418;26.122;2022-08-03T04:22:21;6.40;;;4.20;;
57463;SDS011;43309;44.418;26.122;2022-08-03T04:24:56;5.70;;;4.30;;
57463;SDS011;43309;44.418;26.122;2022-08-03T04:27:32;5.10;;;3.90;;
57463;SDS011;43309;44.418;26.122;2022-08-03T04:30:04;8.80;;;5.00;;
57463;SDS011;43309;44.418;26.122;2022-08-03T04:32:32;8.80;;;6.30;;
57463;SDS011;43309;44.418;26.122;2022-08-03T04:35:02;5.70;;;5.00;;
57463;SDS011;43309;44.418;26.122;2022-08-03T04:40:08;8.70;;;4.80;;
57463;SDS011;43309;44.418;26.122;2022-08-03T04:42:37;7.80;;;4.80;;
57463;SDS011;43309;44.418;26.122;2022-08-03T04:45:06;6.50;;;4.60;;
57463;SDS011;43309;44.418;26.122;2022-08-03T04:47:39;7.90;;;4.60;;
57463;SDS011;43309;44.418;26.122;2022-08-03T04:50:08;6.10;;;4.80;;
57463;SDS011;43309;44.418;26.122;2022-08-03T04:52:36;6.50;;;4.10;;
57463;SDS011;43309;44.418;26.122;2022-08-03T04:55:04;7.20;;;3.90;;
57463;SDS011;43309;44.418;26.122;2022-08-03T04:57:32;4.70;;;3.80;;
57463;SDS011;43309;44.418;26.122;2022-08-03T05:00:00;8.70;;;4.50;;
57463;SDS011;43309;44.418;26.122;2022-08-03T05:02:28;4.80;;;4.10;;
57463;SDS011;43309;44.418;26.122;2022-08-03T05:04:56;8.40;;;4.40;;
57463;SDS011;43309;44.418;26.122;2022-08-03T05:07:24;8.60;;;4.40;;
57463;SDS011;43309;44.418;26.122;2022-08-03T05:09:52;6.40;;;3.70;;
57463;SDS011;43309;44.418;26.122;2022-08-03T05:12:19;5.00;;;3.40;;
57463;SDS011;43309;44.418;26.122;2022-08-03T05:14:47;8.00;;;3.50;;
57463;SDS011;43309;44.418;26.122;2022-08-03T05:17:15;5.30;;;3.30;;
57463;SDS011;43309;44.418;26.122;2022-08-03T05:19:42;5.40;;;3.50;;
57463;SDS011;43309;44.418;26.122;2022-08-03T05:22:11;5.50;;;3.80;;
57463;SDS011;43309;44.418;26.122;2022-08-03T05:24:45;5.60;;;3.10;;
57463;SDS011;43309;44.418;26.122;2022-08-03T05:27:12;5.70;;;3.50;;
57463;SDS011;43309;44.418;26.122;2022-08-03T05:29:45;5.50;;;3.10;;
57463;SDS011;43309;44.418;26.122;2022-08-03T05:32:14;3.70;;;3.40;;
57463;SDS011;43309;44.418;26.122;2022-08-03T05:34:43;7.80;;;3.30;;
57463;SDS011;43309;44.418;26.122;2022-08-03T05:37:10;5.50;;;3.60;;
57463;SDS011;43309;44.418;26.122;2022-08-03T05:39:38;6.80;;;3.00;;
57463;SDS011;43309;44.418;26.122;2022-08-03T05:42:06;6.30;;;3.20;;
57463;SDS011;43309;44.418;26.122;2022-08-03T05:44:39;3.80;;;2.60;;
57463;SDS011;43309;44.418;26.122;2022-08-03T05:47:08;5.10;;;2.90;;
57463;SDS011;43309;44.418;26.122;2022-08-03T05:49:43;4.80;;;2.70;;
57463;SDS011;43309;44.418;26.122;2022-08-03T05:57:13;11.70;;;4.30;;
57463;SDS011;43309;44.418;26.122;2022-08-03T05:59:41;11.90;;;4.90;;
57463;SDS011;43309;44.418;26.122;2022-08-03T06:02:08;11.20;;;4.60;;
57463;SDS011;43309;44.418;26.122;2022-08-03T06:04:36;20.50;;;11.70;;
57463;SDS011;43309;44.418;26.122;2022-08-03T06:07:04;26.00;;;19.10;;
57463;SDS011;43309;44.418;26.122;2022-08-03T06:09:32;23.80;;;18.10;;
57463;SDS011;43309;44.418;26.122;2022-08-03T06:12:00;10.70;;;6.20;;
57463;SDS011;43309;44.418;26.122;2022-08-03T06:14:28;5.60;;;4.40;;
57463;SDS011;43309;44.418;26.122;2022-08-03T06:16:55;13.90;;;10.90;;
57463;SDS011;43309;44.418;26.122;2022-08-03T06:21:53;8.70;;;4.10;;
57463;SDS011;43309;44.418;26.122;2022-08-03T06:24:21;11.50;;;9.40;;
57463;SDS011;43309;44.418;26.122;2022-08-03T06:26:49;10.40;;;8.80;;
57463;SDS011;43309;44.418;26.122;2022-08-03T06:29:17;6.30;;;3.80;;
57463;SDS011;43309;44.418;26.122;2022-08-03T06:31:45;7.60;;;2.90;;
57463;SDS011;43309;44.418;26.122;2022-08-03T06:34:12;9.40;;;6.30;;
57463;SDS011;43309;44.418;26.122;2022-08-03T06:36:40;9.10;;;3.80;;
57463;SDS011;43309;44.418;26.122;2022-08-03T06:39:08;8.00;;;5.30;;
57463;SDS011;43309;44.418;26.122;2022-08-03T06:41:36;8.60;;;5.30;;
57463;SDS011;43309;44.418;26.122;2022-08-03T06:44:09;7.70;;;4.50;;
57463;SDS011;43309;44.418;26.122;2022-08-03T06:46:36;6.70;;;4.50;;
57463;SDS011;43309;44.418;26.122;2022-08-03T06:49:03;6.50;;;2.60;;
57463;SDS011;43309;44.418;26.122;2022-08-03T06:51:31;9.60;;;2.60;;
57463;SDS011;43309;44.418;26.122;2022-08-03T06:53:58;6.10;;;2.90;;
57463;SDS011;43309;44.418;26.122;2022-08-03T06:56:25;6.30;;;2.60;;
57463;SDS011;43309;44.418;26.122;2022-08-03T06:58:52;2.60;;;2.40;;
57463;SDS011;43309;44.418;26.122;2022-08-03T07:01:19;6.20;;;2.70;;
57463;SDS011;43309;44.418;26.122;2022-08-03T07:03:46;5.80;;;2.80;;
57463;SDS011;43309;44.418;26.122;2022-08-03T07:06:13;7.40;;;2.90;;
57463;SDS011;43309;44.418;26.122;2022-08-03T07:08:40;6.70;;;2.90;;
57463;SDS011;43309;44.418;26.122;2022-08-03T07:11:07;7.10;;;3.10;;
57463;SDS011;43309;44.418;26.122;2022-08-03T07:13:34;7.70;;;3.20;;
57463;SDS011;43309;44.418;26.122;2022-08-03T07:16:02;9.80;;;3.20;;
57463;SDS011;43309;44.418;26.122;2022-08-03T07:18:29;6.30;;;2.80;;
57463;SDS011;43309;44.418;26.122;2022-08-03T07:20:56;3.60;;;2.90;;
57463;SDS011;43309;44.418;26.122;2022-08-03T07:23:24;4.90;;;2.80;;
57463;SDS011;43309;44.418;26.122;2022-08-03T07:25:51;8.10;;;2.70;;
57463;SDS011;43309;44.418;26.122;2022-08-03T07:28:18;5.40;;;2.60;;
57463;SDS011;43309;44.418;26.122;2022-08-03T07:30:46;6.00;;;3.00;;
57463;SDS011;43309;44.418;26.122;2022-08-03T07:33:13;4.30;;;2.80;;
57463;SDS011;43309;44.418;26.122;2022-08-03T07:35:41;3.90;;;2.60;;
57463;SDS011;43309;44.418;26.122;2022-08-03T07:38:08;7.20;;;2.70;;
57463;SDS011;43309;44.418;26.122;2022-08-03T07:40:35;4.20;;;2.90;;
57463;SDS011;43309;44.418;26.122;2022-08-03T07:43:02;9.80;;;3.00;;
57463;SDS011;43309;44.418;26.122;2022-08-03T07:45:30;4.70;;;2.80;;
57463;SDS011;43309;44.418;26.122;2022-08-03T07:47:57;3.80;;;2.50;;
57463;SDS011;43309;44.418;26.122;2022-08-03T07:50:25;5.00;;;2.70;;
57463;SDS011;43309;44.418;26.122;2022-08-03T07:52:52;3.20;;;2.40;;
57463;SDS011;43309;44.418;26.122;2022-08-03T07:55:22;5.40;;;2.30;;
57463;SDS011;43309;44.418;26.122;2022-08-03T07:58:04;4.10;;;2.40;;
57463;SDS011;43309;44.418;26.122;2022-08-03T08:00:35;3.00;;;2.10;;
57463;SDS011;43309;44.418;26.122;2022-08-03T08:03:03;3.50;;;2.20;;
57463;SDS011;43309;44.418;26.122;2022-08-03T08:05:30;2.00;;;1.90;;
57463;SDS011;43309;44.418;26.122;2022-08-03T08:07:58;3.70;;;2.20;;
57463;SDS011;43309;44.418;26.122;2022-08-03T08:10:26;2.50;;;2.30;;
57463;SDS011;43309;44.418;26.122;2022-08-03T08:12:54;3.20;;;2.30;;
57463;SDS011;43309;44.418;26.122;2022-08-03T08:15:22;4.00;;;2.30;;
57463;SDS011;43309;44.418;26.122;2022-08-03T08:17:53;3.20;;;2.50;;
57463;SDS011;43309;44.418;26.122;2022-08-03T08:20:24;2.10;;;1.90;;
57463;SDS011;43309;44.418;26.122;2022-08-03T08:22:56;4.20;;;2.00;;
57463;SDS011;43309;44.418;26.122;2022-08-03T08:25:25;2.60;;;2.40;;
57463;SDS011;43309;44.418;26.122;2022-08-03T08:27:52;5.60;;;2.20;;
57463;SDS011;43309;44.418;26.122;2022-08-03T08:30:20;2.60;;;2.10;;
57463;SDS011;43309;44.418;26.122;2022-08-03T08:32:49;2.00;;;1.70;;
57463;SDS011;43309;44.418;26.122;2022-08-03T08:35:16;2.00;;;1.90;;
57463;SDS011;43309;44.418;26.122;2022-08-03T08:37:44;3.60;;;2.20;;
57463;SDS011;43309;44.418;26.122;2022-08-03T08:40:12;2.20;;;1.80;;
57463;SDS011;43309;44.418;26.122;2022-08-03T08:42:40;2.30;;;2.10;;
57463;SDS011;43309;44.418;26.122;2022-08-03T08:45:08;2.60;;;2.20;;
57463;SDS011;43309;44.418;26.122;2022-08-03T08:47:38;4.50;;;2.00;;
57463;SDS011;43309;44.418;26.122;2022-08-03T08:50:07;5.30;;;2.30;;
57463;SDS011;43309;44.418;26.122;2022-08-03T08:52:35;3.20;;;2.20;;
57463;SDS011;43309;44.418;26.122;2022-08-03T08:55:04;3.40;;;2.10;;
57463;SDS011;43309;44.418;26.122;2022-08-03T08:57:33;2.30;;;2.20;;
57463;SDS011;43309;44.418;26.122;2022-08-03T09:00:05;2.30;;;2.10;;
57463;SDS011;43309;44.418;26.122;2022-08-03T09:02:36;3.70;;;2.20;;
57463;SDS011;43309;44.418;26.122;2022-08-03T09:05:03;3.60;;;2.30;;
57463;SDS011;43309;44.418;26.122;2022-08-03T09:07:31;2.60;;;2.30;;
57463;SDS011;43309;44.418;26.122;2022-08-03T09:09:58;2.90;;;2.60;;
57463;SDS011;43309;44.418;26.122;2022-08-03T09:12:25;2.60;;;2.40;;
57463;SDS011;43309;44.418;26.122;2022-08-03T09:14:53;4.80;;;2.60;;
57463;SDS011;43309;44.418;26.122;2022-08-03T09:17:20;6.40;;;2.40;;
57463;SDS011;43309;44.418;26.122;2022-08-03T09:20:02;6.10;;;2.40;;
57463;SDS011;43309;44.418;26.122;2022-08-03T09:22:34;5.40;;;2.50;;
57463;SDS011;43309;44.418;26.122;2022-08-03T09:25:03;4.30;;;2.60;;
57463;SDS011;43309;44.418;26.122;2022-08-03T09:27:43;5.40;;;2.40;;
57463;SDS011;43309;44.418;26.122;2022-08-03T09:30:16;4.90;;;2.60;;
57463;SDS011;43309;44.418;26.122;2022-08-03T09:32:44;3.70;;;2.60;;
57463;SDS011;43309;44.418;26.122;2022-08-03T09:35:12;5.80;;;2.80;;
57463;SDS011;43309;44.418;26.122;2022-08-03T09:37:40;3.20;;;2.70;;
57463;SDS011;43309;44.418;26.122;2022-08-03T09:40:07;3.50;;;2.20;;
57463;SDS011;43309;44.418;26.122;2022-08-03T09:42:35;3.90;;;2.30;;
57463;SDS011;43309;44.418;26.122;2022-08-03T09:45:04;5.60;;;2.40;;
57463;SDS011;43309;44.418;26.122;2022-08-03T09:47:33;5.90;;;2.80;;
57463;SDS011;43309;44.418;26.122;2022-08-03T09:50:05;5.60;;;2.50;;
57463;SDS011;43309;44.418;26.122;2022-08-03T09:52:37;2.50;;;2.30;;
57463;SDS011;43309;44.418;26.122;2022-08-03T09:55:08;4.10;;;2.40;;
57463;SDS011;43309;44.418;26.122;2022-08-03T09:57:36;2.80;;;2.20;;
57463;SDS011;43309;44.418;26.122;2022-08-03T10:00:08;3.80;;;2.10;;
57463;SDS011;43309;44.418;26.122;2022-08-03T10:02:38;6.30;;;2.80;;
57463;SDS011;43309;44.418;26.122;2022-08-03T10:05:06;4.70;;;2.30;;
57463;SDS011;43309;44.418;26.122;2022-08-03T10:07:41;5.70;;;2.50;;
57463;SDS011;43309;44.418;26.122;2022-08-03T10:10:10;3.60;;;2.40;;
57463;SDS011;43309;44.418;26.122;2022-08-03T10:12:37;5.50;;;2.50;;
57463;SDS011;43309;44.418;26.122;2022-08-03T10:15:05;4.40;;;2.50;;
57463;SDS011;43309;44.418;26.122;2022-08-03T10:17:38;3.00;;;2.40;;
57463;SDS011;43309;44.418;26.122;2022-08-03T10:20:06;5.50;;;3.30;;
57463;SDS011;43309;44.418;26.122;2022-08-03T10:22:35;3.30;;;2.30;;
57463;SDS011;43309;44.418;26.122;2022-08-03T10:25:11;4.60;;;3.00;;
57463;SDS011;43309;44.418;26.122;2022-08-03T10:27:39;8.60;;;2.50;;
57463;SDS011;43309;44.418;26.122;2022-08-03T10:30:07;3.30;;;2.30;;
57463;SDS011;43309;44.418;26.122;2022-08-03T10:32:40;3.20;;;2.50;;
57463;SDS011;43309;44.418;26.122;2022-08-03T10:35:14;2.70;;;2.20;;
57463;SDS011;43309;44.418;26.122;2022-08-03T10:37:44;2.70;;;2.30;;
57463;SDS011;43309;44.418;26.122;2022-08-03T10:40:32;6.40;;;2.20;;
57463;SDS011;43309;44.418;26.122;2022-08-03T10:43:04;2.90;;;2.40;;
57463;SDS011;43309;44.418;26.122;2022-08-03T10:45:35;2.60;;;2.40;;
57463;SDS011;43309;44.418;26.122;2022-08-03T10:48:06;3.20;;;2.20;;
57463;SDS011;43309;44.418;26.122;2022-08-03T10:50:34;9.70;;;2.30;;
57463;SDS011;43309;44.418;26.122;2022-08-03T10:53:03;3.80;;;2.40;;
57463;SDS011;43309;44.418;26.122;2022-08-03T10:55:41;8.70;;;2.50;;
57463;SDS011;43309;44.418;26.122;2022-08-03T11:01:04;2.50;;;2.00;;
57463;SDS011;43309;44.418;26.122;2022-08-03T11:03:32;3.00;;;2.20;;
57463;SDS011;43309;44.418;26.122;2022-08-03T11:06:13;3.40;;;2.70;;
57463;SDS011;43309;44.418;26.122;2022-08-03T11:08:45;2.40;;;2.20;;
57463;SDS011;43309;44.418;26.122;2022-08-03T11:14:03;3.90;;;2.40;;
57463;SDS011;43309;44.418;26.122;2022-08-03T11:16:41;2.90;;;2.20;;
57463;SDS011;43309;44.418;26.122;2022-08-03T11:19:12;4.60;;;2.40;;
57463;SDS011;43309;44.418;26.122;2022-08-03T11:27:19;3.20;;;2.10;;
57463;SDS011;43309;44.418;26.122;2022-08-03T11:35:22;6.20;;;2.40;;
57463;SDS011;43309;44.418;26.122;2022-08-03T11:46:12;2.90;;;2.20;;
57463;SDS011;43309;44.418;26.122;2022-08-03T11:48:44;2.40;;;2.10;;
57463;SDS011;43309;44.418;26.122;2022-08-03T11:53:52;2.60;;;2.40;;
57463;SDS011;43309;44.418;26.122;2022-08-03T11:56:20;2.10;;;2.00;;
57463;SDS011;43309;44.418;26.122;2022-08-03T11:58:50;2.20;;;2.00;;
57463;SDS011;43309;44.418;26.122;2022-08-03T12:01:20;3.40;;;2.30;;
57463;SDS011;43309;44.418;26.122;2022-08-03T12:03:48;2.60;;;2.50;;
57463;SDS011;43309;44.418;26.122;2022-08-03T12:06:16;3.00;;;2.80;;
57463;SDS011;43309;44.418;26.122;2022-08-03T12:08:44;2.80;;;2.50;;
57463;SDS011;43309;44.418;26.122;2022-08-03T12:11:13;3.00;;;2.20;;
57463;SDS011;43309;44.418;26.122;2022-08-03T12:13:45;2.70;;;2.00;;
57463;SDS011;43309;44.418;26.122;2022-08-03T12:16:17;9.00;;;2.30;;
57463;SDS011;43309;44.418;26.122;2022-08-03T12:18:55;2.50;;;2.30;;
57463;SDS011;43309;44.418;26.122;2022-08-03T12:21:27;2.50;;;2.30;;
57463;SDS011;43309;44.418;26.122;2022-08-03T12:24:03;3.00;;;2.00;;
57463;SDS011;43309;44.418;26.122;2022-08-03T12:26:44;2.10;;;1.90;;
57463;SDS011;43309;44.418;26.122;2022-08-03T12:29:22;4.90;;;4.20;;
57463;SDS011;43309;44.418;26.122;2022-08-03T12:31:51;12.20;;;10.10;;
57463;SDS011;43309;44.418;26.122;2022-08-03T12:34:18;7.30;;;5.30;;
57463;SDS011;43309;44.418;26.122;2022-08-03T12:36:49;1.80;;;1.70;;
57463;SDS011;43309;44.418;26.122;2022-08-03T12:39:21;2.60;;;1.90;;
57463;SDS011;43309;44.418;26.122;2022-08-03T12:41:51;5.70;;;2.20;;
57463;SDS011;43309;44.418;26.122;2022-08-03T12:44:29;3.00;;;1.90;;
57463;SDS011;43309;44.418;26.122;2022-08-03T12:47:02;2.50;;;2.00;;
57463;SDS011;43309;44.418;26.122;2022-08-03T12:49:43;3.90;;;2.40;;
57463;SDS011;43309;44.418;26.122;2022-08-03T12:52:20;3.30;;;2.70;;
57463;SDS011;43309;44.418;26.122;2022-08-03T12:54:55;5.50;;;3.40;;
57463;SDS011;43309;44.418;26.122;2022-08-03T12:57:24;3.60;;;3.40;;
57463;SDS011;43309;44.418;26.122;2022-08-03T12:59:51;2.00;;;1.90;;
57463;SDS011;43309;44.418;26.122;2022-08-03T13:02:22;2.90;;;2.10;;
57463;SDS011;43309;44.418;26.122;2022-08-03T13:04:51;2.10;;;2.00;;
57463;SDS011;43309;44.418;26.122;2022-08-03T13:07:19;3.20;;;2.90;;
57463;SDS011;43309;44.418;26.122;2022-08-03T13:09:48;3.40;;;2.10;;
57463;SDS011;43309;44.418;26.122;2022-08-03T13:12:17;3.50;;;2.50;;
57463;SDS011;43309;44.418;26.122;2022-08-03T13:14:46;2.60;;;2.40;;
57463;SDS011;43309;44.418;26.122;2022-08-03T13:17:15;3.20;;;2.70;;
57463;SDS011;43309;44.418;26.122;2022-08-03T13:19:43;2.20;;;2.00;;
57463;SDS011;43309;44.418;26.122;2022-08-03T13:22:12;2.50;;;2.10;;
57463;SDS011;43309;44.418;26.122;2022-08-03T13:24:41;4.60;;;2.30;;
57463;SDS011;43309;44.418;26.122;2022-08-03T13:27:09;3.20;;;2.60;;
57463;SDS011;43309;44.418;26.122;2022-08-03T13:29:37;4.80;;;2.30;;
57463;SDS011;43309;44.418;26.122;2022-08-03T13:32:04;4.80;;;2.40;;
57463;SDS011;43309;44.418;26.122;2022-08-03T13:34:32;7.60;;;2.40;;
57463;SDS011;43309;44.418;26.122;2022-08-03T13:36:59;3.20;;;2.10;;
57463;SDS011;43309;44.418;26.122;2022-08-03T13:39:26;5.40;;;2.10;;
57463;SDS011;43309;44.418;26.122;2022-08-03T13:41:53;1.80;;;1.60;;
57463;SDS011;43309;44.418;26.122;2022-08-03T13:44:21;3.00;;;2.10;;
57463;SDS011;43309;44.418;26.122;2022-08-03T13:46:48;5.90;;;2.50;;
57463;SDS011;43309;44.418;26.122;2022-08-03T13:49:16;5.60;;;2.20;;
57463;SDS011;43309;44.418;26.122;2022-08-03T13:51:43;2.30;;;2.00;;
57463;SDS011;43309;44.418;26.122;2022-08-03T13:54:10;2.20;;;2.10;;
57463;SDS011;43309;44.418;26.122;2022-08-03T13:56:38;2.10;;;2.00;;
57463;SDS011;43309;44.418;26.122;2022-08-03T13:59:05;3.80;;;2.20;;
57463;SDS011;43309;44.418;26.122;2022-08-03T14:01:32;4.80;;;2.10;;
57463;SDS011;43309;44.418;26.122;2022-08-03T14:03:59;4.80;;;1.90;;
57463;SDS011;43309;44.418;26.122;2022-08-03T14:06:26;3.30;;;2.00;;
57463;SDS011;43309;44.418;26.122;2022-08-03T14:08:53;2.50;;;2.10;;
57463;SDS011;43309;44.418;26.122;2022-08-03T14:11:20;4.20;;;2.30;;
57463;SDS011;43309;44.418;26.122;2022-08-03T14:13:48;5.40;;;2.10;;
57463;SDS011;43309;44.418;26.122;2022-08-03T14:16:15;2.60;;;2.40;;
57463;SDS011;43309;44.418;26.122;2022-08-03T14:18:42;3.20;;;2.30;;
57463;SDS011;43309;44.418;26.122;2022-08-03T14:21:09;3.10;;;2.20;;
57463;SDS011;43309;44.418;26.122;2022-08-03T14:23:36;6.50;;;2.40;;
57463;SDS011;43309;44.418;26.122;2022-08-03T14:26:04;6.40;;;2.00;;
57463;SDS011;43309;44.418;26.122;2022-08-03T14:28:32;3.30;;;2.20;;
57463;SDS011;43309;44.418;26.122;2022-08-03T14:30:59;3.80;;;2.20;;
57463;SDS011;43309;44.418;26.122;2022-08-03T14:33:26;2.50;;;2.30;;
57463;SDS011;43309;44.418;26.122;2022-08-03T14:35:56;4.50;;;2.50;;
57463;SDS011;43309;44.418;26.122;2022-08-03T14:38:24;2.80;;;2.20;;
57463;SDS011;43309;44.418;26.122;2022-08-03T14:40:51;2.20;;;2.00;;
57463;SDS011;43309;44.418;26.122;2022-08-03T14:43:19;4.90;;;2.00;;
57463;SDS011;43309;44.418;26.122;2022-08-03T14:45:47;2.00;;;1.90;;
57463;SDS011;43309;44.418;26.122;2022-08-03T14:48:20;2.30;;;2.10;;
57463;SDS011;43309;44.418;26.122;2022-08-03T14:50:48;2.30;;;2.00;;
57463;SDS011;43309;44.418;26.122;2022-08-03T14:53:16;2.00;;;1.90;;
57463;SDS011;43309;44.418;26.122;2022-08-03T14:55:46;2.60;;;1.90;;
57463;SDS011;43309;44.418;26.122;2022-08-03T14:58:15;3.80;;;2.30;;
57463;SDS011;43309;44.418;26.122;2022-08-03T15:00:42;2.50;;;1.90;;
57463;SDS011;43309;44.418;26.122;2022-08-03T15:03:10;4.50;;;2.20;;
57463;SDS011;43309;44.418;26.122;2022-08-03T15:05:37;2.90;;;2.20;;
57463;SDS011;43309;44.418;26.122;2022-08-03T15:08:04;2.30;;;2.10;;
57463;SDS011;43309;44.418;26.122;2022-08-03T15:10:31;4.40;;;2.60;;
57463;SDS011;43309;44.418;26.122;2022-08-03T15:12:58;3.80;;;1.90;;
57463;SDS011;43309;44.418;26.122;2022-08-03T15:15:25;2.50;;;2.30;;
57463;SDS011;43309;44.418;26.122;2022-08-03T15:17:52;5.60;;;1.90;;
57463;SDS011;43309;44.418;26.122;2022-08-03T15:20:19;2.10;;;2.00;;
57463;SDS011;43309;44.418;26.122;2022-08-03T15:22:47;1.80;;;1.70;;
57463;SDS011;43309;44.418;26.122;2022-08-03T15:25:14;2.10;;;1.80;;
57463;SDS011;43309;44.418;26.122;2022-08-03T15:27:41;2.80;;;1.70;;
57463;SDS011;43309;44.418;26.122;2022-08-03T15:30:08;2.00;;;1.90;;
57463;SDS011;43309;44.418;26.122;2022-08-03T15:32:36;2.50;;;1.80;;
57463;SDS011;43309;44.418;26.122;2022-08-03T15:35:03;3.00;;;1.90;;
57463;SDS011;43309;44.418;26.122;2022-08-03T15:37:30;1.90;;;1.80;;
57463;SDS011;43309;44.418;26.122;2022-08-03T15:39:58;3.40;;;2.40;;
57463;SDS011;43309;44.418;26.122;2022-08-03T15:42:25;5.00;;;2.10;;
57463;SDS011;43309;44.418;26.122;2022-08-03T15:44:52;2.40;;;2.20;;
57463;SDS011;43309;44.418;26.122;2022-08-03T15:47:19;2.10;;;1.90;;
57463;SDS011;43309;44.418;26.122;2022-08-03T15:49:46;2.10;;;2.00;;
57463;SDS011;43309;44.418;26.122;2022-08-03T15:52:13;4.60;;;2.10;;
57463;SDS011;43309;44.418;26.122;2022-08-03T15:54:40;3.10;;;2.30;;